sensor_id;sensor_type;location;lat;lon;timestamp;P1;durP1;ratioP1;P2;durP2;ratioP2
18249;SDS011;27980;52.126;5.572;2022-09-23T00:01:00;10.98;;;7.40;;
18249;SDS011;27980;52.126;5.572;2022-09-23T00:03:28;10.55;;;7.35;;
18249;SDS011;27980;52.126;5.572;2022-09-23T00:05:56;8.38;;;6.85;;
18249;SDS011;27980;52.126;5.572;2022-09-23T00:08:23;8.15;;;7.25;;
18249;SDS011;27980;52.126;5.572;2022-09-23T00:10:52;9.27;;;7.68;;
18249;SDS011;27980;52.126;5.572;2022-09-23T00:13:19;7.97;;;7.18;;
18249;SDS011;27980;52.126;5.572;2022-09-23T00:15:47;8.25;;;7.32;;
18249;SDS011;27980;52.126;5.572;2022-09-23T00:18:14;8.68;;;7.60;;
18249;SDS011;27980;52.126;5.572;2022-09-23T00:20:42;8.50;;;7.00;;
18249;SDS011;27980;52.126;5.572;2022-09-23T00:23:08;8.25;;;6.80;;
18249;SDS011;27980;52.126;5.572;2022-09-23T00:25:35;9.57;;;7.57;;
18249;SDS011;27980;52.126;5.572;2022-09-23T00:28:03;10.25;;;7.43;;
18249;SDS011;27980;52.126;5.572;2022-09-23T00:30:30;8.48;;;7.40;;
18249;SDS011;27980;52.126;5.572;2022-09-23T00:32:57;8.32;;;7.20;;
18249;SDS011;27980;52.126;5.572;2022-09-23T00:35:24;8.70;;;7.20;;
18249;SDS011;27980;52.126;5.572;2022-09-23T00:37:51;9.95;;;7.32;;
18249;SDS011;27980;52.126;5.572;2022-09-23T00:40:18;8.63;;;7.25;;
18249;SDS011;27980;52.126;5.572;2022-09-23T00:42:45;8.88;;;7.38;;
18249;SDS011;27980;52.126;5.572;2022-09-23T00:45:14;8.13;;;7.18;;
18249;SDS011;27980;52.126;5.572;2022-09-23T00:47:43;8.57;;;7.43;;
18249;SDS011;27980;52.126;5.572;2022-09-23T00:50:14;9.23;;;7.50;;
18249;SDS011;27980;52.126;5.572;2022-09-23T00:52:48;10.23;;;7.10;;
18249;SDS011;27980;52.126;5.572;2022-09-23T00:55:18;8.68;;;6.93;;
18249;SDS011;27980;52.126;5.572;2022-09-23T00:57:50;7.97;;;7.18;;
18249;SDS011;27980;52.126;5.572;2022-09-23T01:00:22;8.90;;;7.43;;
18249;SDS011;27980;52.126;5.572;2022-09-23T01:02:49;9.98;;;7.35;;
18249;SDS011;27980;52.126;5.572;2022-09-23T01:05:16;10.02;;;8.18;;
18249;SDS011;27980;52.126;5.572;2022-09-23T01:07:44;8.20;;;7.18;;
18249;SDS011;27980;52.126;5.572;2022-09-23T01:10:11;8.00;;;6.80;;
18249;SDS011;27980;52.126;5.572;2022-09-23T01:12:43;9.77;;;7.70;;
18249;SDS011;27980;52.126;5.572;2022-09-23T01:15:34;9.10;;;7.57;;
18249;SDS011;27980;52.126;5.572;2022-09-23T01:18:12;8.32;;;7.53;;
18249;SDS011;27980;52.126;5.572;2022-09-23T01:20:55;9.68;;;8.02;;
18249;SDS011;27980;52.126;5.572;2022-09-23T01:23:47;10.07;;;8.18;;
18249;SDS011;27980;52.126;5.572;2022-09-23T01:32:38;9.43;;;7.35;;
18249;SDS011;27980;52.126;5.572;2022-09-23T01:35:18;9.30;;;7.80;;
18249;SDS011;27980;52.126;5.572;2022-09-23T01:37:54;8.38;;;7.47;;
18249;SDS011;27980;52.126;5.572;2022-09-23T01:40:32;8.88;;;7.97;;
18249;SDS011;27980;52.126;5.572;2022-09-23T01:43:11;8.23;;;7.28;;
18249;SDS011;27980;52.126;5.572;2022-09-23T01:45:41;9.57;;;7.95;;
18249;SDS011;27980;52.126;5.572;2022-09-23T01:48:14;8.65;;;7.75;;
18249;SDS011;27980;52.126;5.572;2022-09-23T01:50:46;10.50;;;8.02;;
18249;SDS011;27980;52.126;5.572;2022-09-23T01:53:23;8.68;;;7.78;;
18249;SDS011;27980;52.126;5.572;2022-09-23T01:55:55;9.45;;;8.15;;
18249;SDS011;27980;52.126;5.572;2022-09-23T01:58:29;7.90;;;7.15;;
18249;SDS011;27980;52.126;5.572;2022-09-23T02:01:02;8.95;;;8.02;;
18249;SDS011;27980;52.126;5.572;2022-09-23T02:03:33;9.23;;;8.18;;
18249;SDS011;27980;52.126;5.572;2022-09-23T02:06:08;9.43;;;8.10;;
18249;SDS011;27980;52.126;5.572;2022-09-23T02:08:40;9.32;;;8.15;;
18249;SDS011;27980;52.126;5.572;2022-09-23T02:11:11;8.57;;;7.30;;
18249;SDS011;27980;52.126;5.572;2022-09-23T02:13:42;8.82;;;7.78;;
18249;SDS011;27980;52.126;5.572;2022-09-23T02:16:15;9.68;;;7.65;;
18249;SDS011;27980;52.126;5.572;2022-09-23T02:18:50;8.43;;;7.50;;
18249;SDS011;27980;52.126;5.572;2022-09-23T02:21:21;9.52;;;7.93;;
18249;SDS011;27980;52.126;5.572;2022-09-23T02:23:54;10.00;;;7.93;;
18249;SDS011;27980;52.126;5.572;2022-09-23T02:26:26;8.63;;;7.72;;
18249;SDS011;27980;52.126;5.572;2022-09-23T02:28:59;8.77;;;7.55;;
18249;SDS011;27980;52.126;5.572;2022-09-23T02:31:35;8.77;;;7.88;;
18249;SDS011;27980;52.126;5.572;2022-09-23T02:34:10;8.77;;;7.88;;
18249;SDS011;27980;52.126;5.572;2022-09-23T02:36:43;9.75;;;7.97;;
18249;SDS011;27980;52.126;5.572;2022-09-23T02:39:17;9.77;;;8.27;;
18249;SDS011;27980;52.126;5.572;2022-09-23T02:41:50;9.85;;;8.68;;
18249;SDS011;27980;52.126;5.572;2022-09-23T02:44:23;9.68;;;8.52;;
18249;SDS011;27980;52.126;5.572;2022-09-23T02:46:52;9.18;;;8.20;;
18249;SDS011;27980;52.126;5.572;2022-09-23T02:49:22;9.23;;;8.07;;
18249;SDS011;27980;52.126;5.572;2022-09-23T02:51:51;9.68;;;8.40;;
18249;SDS011;27980;52.126;5.572;2022-09-23T02:54:20;11.27;;;7.95;;
18249;SDS011;27980;52.126;5.572;2022-09-23T02:56:49;11.13;;;8.68;;
18249;SDS011;27980;52.126;5.572;2022-09-23T02:59:17;9.77;;;8.43;;
18249;SDS011;27980;52.126;5.572;2022-09-23T03:01:50;13.60;;;8.93;;
18249;SDS011;27980;52.126;5.572;2022-09-23T03:04:32;9.80;;;8.20;;
18249;SDS011;27980;52.126;5.572;2022-09-23T03:07:08;10.23;;;8.27;;
18249;SDS011;27980;52.126;5.572;2022-09-23T03:09:43;9.52;;;8.57;;
18249;SDS011;27980;52.126;5.572;2022-09-23T03:12:20;9.27;;;8.10;;
18249;SDS011;27980;52.126;5.572;2022-09-23T03:15:00;11.90;;;8.77;;
18249;SDS011;27980;52.126;5.572;2022-09-23T03:17:35;11.25;;;8.82;;
18249;SDS011;27980;52.126;5.572;2022-09-23T03:20:11;10.70;;;8.63;;
18249;SDS011;27980;52.126;5.572;2022-09-23T03:22:47;11.18;;;9.15;;
18249;SDS011;27980;52.126;5.572;2022-09-23T03:25:19;9.88;;;8.80;;
18249;SDS011;27980;52.126;5.572;2022-09-23T03:27:49;11.05;;;9.52;;
18249;SDS011;27980;52.126;5.572;2022-09-23T03:30:21;10.48;;;9.35;;
18249;SDS011;27980;52.126;5.572;2022-09-23T03:32:48;10.70;;;9.60;;
18249;SDS011;27980;52.126;5.572;2022-09-23T03:35:17;10.98;;;9.35;;
18249;SDS011;27980;52.126;5.572;2022-09-23T03:37:46;13.93;;;9.55;;
18249;SDS011;27980;52.126;5.572;2022-09-23T03:40:16;11.98;;;10.13;;
18249;SDS011;27980;52.126;5.572;2022-09-23T03:42:49;9.63;;;8.63;;
18249;SDS011;27980;52.126;5.572;2022-09-23T03:45:17;11.35;;;9.80;;
18249;SDS011;27980;52.126;5.572;2022-09-23T03:47:47;11.13;;;9.13;;
18249;SDS011;27980;52.126;5.572;2022-09-23T03:50:14;12.30;;;9.65;;
18249;SDS011;27980;52.126;5.572;2022-09-23T03:52:43;11.13;;;9.40;;
18249;SDS011;27980;52.126;5.572;2022-09-23T03:55:11;13.93;;;10.10;;
18249;SDS011;27980;52.126;5.572;2022-09-23T03:57:40;10.50;;;9.38;;
18249;SDS011;27980;52.126;5.572;2022-09-23T04:00:07;12.77;;;9.75;;
18249;SDS011;27980;52.126;5.572;2022-09-23T04:02:35;11.50;;;10.27;;
18249;SDS011;27980;52.126;5.572;2022-09-23T04:05:02;11.60;;;9.70;;
18249;SDS011;27980;52.126;5.572;2022-09-23T04:07:29;10.48;;;9.38;;
18249;SDS011;27980;52.126;5.572;2022-09-23T04:09:58;11.13;;;9.65;;
18249;SDS011;27980;52.126;5.572;2022-09-23T04:12:25;10.43;;;8.88;;
18249;SDS011;27980;52.126;5.572;2022-09-23T04:14:51;12.80;;;9.60;;
18249;SDS011;27980;52.126;5.572;2022-09-23T04:17:18;11.07;;;9.48;;
18249;SDS011;27980;52.126;5.572;2022-09-23T04:19:45;11.90;;;9.73;;
18249;SDS011;27980;52.126;5.572;2022-09-23T04:22:12;11.85;;;9.73;;
18249;SDS011;27980;52.126;5.572;2022-09-23T04:24:39;12.23;;;9.88;;
18249;SDS011;27980;52.126;5.572;2022-09-23T04:27:07;14.98;;;10.23;;
18249;SDS011;27980;52.126;5.572;2022-09-23T04:29:34;11.10;;;9.82;;
18249;SDS011;27980;52.126;5.572;2022-09-23T04:32:01;12.68;;;10.63;;
18249;SDS011;27980;52.126;5.572;2022-09-23T04:34:27;12.30;;;10.20;;
18249;SDS011;27980;52.126;5.572;2022-09-23T04:36:54;12.20;;;10.65;;
18249;SDS011;27980;52.126;5.572;2022-09-23T04:39:21;13.25;;;10.88;;
18249;SDS011;27980;52.126;5.572;2022-09-23T04:41:48;15.60;;;11.13;;
18249;SDS011;27980;52.126;5.572;2022-09-23T04:44:16;14.48;;;10.35;;
18249;SDS011;27980;52.126;5.572;2022-09-23T04:46:44;12.70;;;10.98;;
18249;SDS011;27980;52.126;5.572;2022-09-23T04:49:12;12.15;;;10.85;;
18249;SDS011;27980;52.126;5.572;2022-09-23T04:51:39;14.35;;;11.38;;
18249;SDS011;27980;52.126;5.572;2022-09-23T04:54:07;12.75;;;10.88;;
18249;SDS011;27980;52.126;5.572;2022-09-23T04:56:34;13.00;;;10.82;;
18249;SDS011;27980;52.126;5.572;2022-09-23T04:59:02;13.02;;;11.63;;
18249;SDS011;27980;52.126;5.572;2022-09-23T05:01:31;12.77;;;11.32;;
18249;SDS011;27980;52.126;5.572;2022-09-23T05:04:00;14.43;;;11.20;;
18249;SDS011;27980;52.126;5.572;2022-09-23T05:06:29;19.58;;;12.68;;
18249;SDS011;27980;52.126;5.572;2022-09-23T05:08:58;15.05;;;11.95;;
18249;SDS011;27980;52.126;5.572;2022-09-23T05:11:27;14.93;;;11.55;;
18249;SDS011;27980;52.126;5.572;2022-09-23T05:13:56;13.82;;;11.30;;
18249;SDS011;27980;52.126;5.572;2022-09-23T05:16:23;13.63;;;10.98;;
18249;SDS011;27980;52.126;5.572;2022-09-23T05:18:52;15.02;;;10.82;;
18249;SDS011;27980;52.126;5.572;2022-09-23T05:21:20;17.63;;;11.45;;
18249;SDS011;27980;52.126;5.572;2022-09-23T05:23:49;12.27;;;10.98;;
18249;SDS011;27980;52.126;5.572;2022-09-23T05:26:19;13.65;;;11.30;;
18249;SDS011;27980;52.126;5.572;2022-09-23T05:28:47;14.57;;;11.27;;
18249;SDS011;27980;52.126;5.572;2022-09-23T05:31:14;14.10;;;11.80;;
18249;SDS011;27980;52.126;5.572;2022-09-23T05:33:44;15.65;;;12.10;;
18249;SDS011;27980;52.126;5.572;2022-09-23T05:36:15;14.88;;;11.82;;
18249;SDS011;27980;52.126;5.572;2022-09-23T05:38:42;14.15;;;11.40;;
18249;SDS011;27980;52.126;5.572;2022-09-23T05:41:10;15.25;;;11.60;;
18249;SDS011;27980;52.126;5.572;2022-09-23T05:43:38;14.45;;;12.35;;
18249;SDS011;27980;52.126;5.572;2022-09-23T05:46:06;14.38;;;12.38;;
18249;SDS011;27980;52.126;5.572;2022-09-23T05:48:35;15.18;;;11.60;;
18249;SDS011;27980;52.126;5.572;2022-09-23T05:51:05;13.18;;;11.80;;
18249;SDS011;27980;52.126;5.572;2022-09-23T05:53:38;15.20;;;12.45;;
18249;SDS011;27980;52.126;5.572;2022-09-23T05:56:08;16.23;;;12.45;;
18249;SDS011;27980;52.126;5.572;2022-09-23T05:58:35;13.38;;;11.98;;
18249;SDS011;27980;52.126;5.572;2022-09-23T06:01:07;14.52;;;12.35;;
18249;SDS011;27980;52.126;5.572;2022-09-23T06:03:35;15.05;;;12.15;;
18249;SDS011;27980;52.126;5.572;2022-09-23T06:06:02;13.40;;;12.00;;
18249;SDS011;27980;52.126;5.572;2022-09-23T06:08:28;15.13;;;12.25;;
18249;SDS011;27980;52.126;5.572;2022-09-23T06:10:57;17.40;;;13.25;;
18249;SDS011;27980;52.126;5.572;2022-09-23T06:13:31;19.83;;;12.77;;
18249;SDS011;27980;52.126;5.572;2022-09-23T06:15:59;14.73;;;11.82;;
18249;SDS011;27980;52.126;5.572;2022-09-23T06:18:26;15.13;;;12.75;;
18249;SDS011;27980;52.126;5.572;2022-09-23T06:20:58;13.63;;;11.88;;
18249;SDS011;27980;52.126;5.572;2022-09-23T06:23:26;16.77;;;11.93;;
18249;SDS011;27980;52.126;5.572;2022-09-23T06:25:53;14.18;;;11.52;;
18249;SDS011;27980;52.126;5.572;2022-09-23T06:28:29;15.65;;;13.02;;
18249;SDS011;27980;52.126;5.572;2022-09-23T06:30:57;14.40;;;12.90;;
18249;SDS011;27980;52.126;5.572;2022-09-23T06:33:24;14.02;;;12.45;;
18249;SDS011;27980;52.126;5.572;2022-09-23T06:35:54;14.00;;;11.73;;
18249;SDS011;27980;52.126;5.572;2022-09-23T06:38:21;14.55;;;12.63;;
18249;SDS011;27980;52.126;5.572;2022-09-23T06:40:49;17.65;;;12.60;;
18249;SDS011;27980;52.126;5.572;2022-09-23T06:43:17;15.23;;;12.02;;
18249;SDS011;27980;52.126;5.572;2022-09-23T06:45:45;16.30;;;12.65;;
18249;SDS011;27980;52.126;5.572;2022-09-23T06:48:12;14.65;;;12.98;;
18249;SDS011;27980;52.126;5.572;2022-09-23T06:50:39;16.40;;;12.63;;
18249;SDS011;27980;52.126;5.572;2022-09-23T06:53:05;13.35;;;11.82;;
18249;SDS011;27980;52.126;5.572;2022-09-23T06:55:32;13.70;;;12.30;;
18249;SDS011;27980;52.126;5.572;2022-09-23T06:57:59;17.05;;;12.43;;
18249;SDS011;27980;52.126;5.572;2022-09-23T07:00:29;13.95;;;12.35;;
18249;SDS011;27980;52.126;5.572;2022-09-23T07:02:56;16.63;;;12.57;;
18249;SDS011;27980;52.126;5.572;2022-09-23T07:05:23;13.43;;;11.90;;
18249;SDS011;27980;52.126;5.572;2022-09-23T07:07:54;14.50;;;12.15;;
18249;SDS011;27980;52.126;5.572;2022-09-23T07:10:21;12.30;;;11.00;;
18249;SDS011;27980;52.126;5.572;2022-09-23T07:12:48;12.13;;;10.93;;
18249;SDS011;27980;52.126;5.572;2022-09-23T07:15:15;14.02;;;11.10;;
18249;SDS011;27980;52.126;5.572;2022-09-23T07:17:43;12.07;;;10.90;;
18249;SDS011;27980;52.126;5.572;2022-09-23T07:20:10;13.48;;;10.05;;
18249;SDS011;27980;52.126;5.572;2022-09-23T07:22:37;13.65;;;10.73;;
18249;SDS011;27980;52.126;5.572;2022-09-23T07:25:04;11.23;;;9.57;;
18249;SDS011;27980;52.126;5.572;2022-09-23T07:27:32;11.23;;;10.02;;
18249;SDS011;27980;52.126;5.572;2022-09-23T07:29:59;11.45;;;9.32;;
18249;SDS011;27980;52.126;5.572;2022-09-23T07:32:26;16.70;;;9.80;;
18249;SDS011;27980;52.126;5.572;2022-09-23T07:34:54;13.32;;;8.57;;
18249;SDS011;27980;52.126;5.572;2022-09-23T07:37:21;12.40;;;8.85;;
18249;SDS011;27980;52.126;5.572;2022-09-23T07:39:48;9.77;;;8.60;;
18249;SDS011;27980;52.126;5.572;2022-09-23T07:42:16;9.63;;;8.60;;
18249;SDS011;27980;52.126;5.572;2022-09-23T07:44:43;11.23;;;7.95;;
18249;SDS011;27980;52.126;5.572;2022-09-23T07:47:11;11.25;;;8.50;;
18249;SDS011;27980;52.126;5.572;2022-09-23T07:49:38;10.40;;;7.97;;
18249;SDS011;27980;52.126;5.572;2022-09-23T07:52:07;10.68;;;8.32;;
18249;SDS011;27980;52.126;5.572;2022-09-23T07:54:33;9.50;;;8.02;;
18249;SDS011;27980;52.126;5.572;2022-09-23T07:57:00;9.02;;;7.95;;
18249;SDS011;27980;52.126;5.572;2022-09-23T07:59:27;9.23;;;8.23;;
18249;SDS011;27980;52.126;5.572;2022-09-23T08:01:54;10.40;;;8.23;;
18249;SDS011;27980;52.126;5.572;2022-09-23T08:04:22;10.55;;;8.52;;
18249;SDS011;27980;52.126;5.572;2022-09-23T08:06:52;9.70;;;8.70;;
18249;SDS011;27980;52.126;5.572;2022-09-23T08:09:22;10.10;;;8.20;;
18249;SDS011;27980;52.126;5.572;2022-09-23T08:11:51;10.48;;;8.95;;
18249;SDS011;27980;52.126;5.572;2022-09-23T08:14:19;11.35;;;8.32;;
18249;SDS011;27980;52.126;5.572;2022-09-23T08:16:47;9.40;;;8.38;;
18249;SDS011;27980;52.126;5.572;2022-09-23T08:19:14;8.60;;;7.60;;
18249;SDS011;27980;52.126;5.572;2022-09-23T08:21:41;9.25;;;7.88;;
18249;SDS011;27980;52.126;5.572;2022-09-23T08:24:11;7.95;;;7.15;;
18249;SDS011;27980;52.126;5.572;2022-09-23T08:26:41;8.82;;;7.70;;
18249;SDS011;27980;52.126;5.572;2022-09-23T08:29:10;8.98;;;7.57;;
18249;SDS011;27980;52.126;5.572;2022-09-23T08:31:38;10.90;;;7.82;;
18249;SDS011;27980;52.126;5.572;2022-09-23T08:34:05;11.10;;;7.80;;
18249;SDS011;27980;52.126;5.572;2022-09-23T08:36:32;10.23;;;7.38;;
18249;SDS011;27980;52.126;5.572;2022-09-23T08:38:59;12.48;;;8.60;;
18249;SDS011;27980;52.126;5.572;2022-09-23T08:41:28;10.55;;;8.13;;
18249;SDS011;27980;52.126;5.572;2022-09-23T08:44:03;9.02;;;8.13;;
18249;SDS011;27980;52.126;5.572;2022-09-23T08:46:36;8.82;;;7.93;;
18249;SDS011;27980;52.126;5.572;2022-09-23T08:49:08;10.63;;;7.97;;
18249;SDS011;27980;52.126;5.572;2022-09-23T08:51:44;10.45;;;7.95;;
18249;SDS011;27980;52.126;5.572;2022-09-23T08:54:13;10.77;;;8.50;;
18249;SDS011;27980;52.126;5.572;2022-09-23T08:56:42;8.82;;;7.50;;
18249;SDS011;27980;52.126;5.572;2022-09-23T08:59:17;12.18;;;8.18;;
18249;SDS011;27980;52.126;5.572;2022-09-23T09:01:51;8.02;;;7.22;;
18249;SDS011;27980;52.126;5.572;2022-09-23T09:04:22;10.65;;;8.50;;
18249;SDS011;27980;52.126;5.572;2022-09-23T09:06:53;12.60;;;7.97;;
18249;SDS011;27980;52.126;5.572;2022-09-23T09:09:25;10.23;;;7.90;;
18249;SDS011;27980;52.126;5.572;2022-09-23T09:11:56;9.77;;;7.82;;
18249;SDS011;27980;52.126;5.572;2022-09-23T09:14:31;11.93;;;7.97;;
18249;SDS011;27980;52.126;5.572;2022-09-23T09:17:03;11.20;;;8.18;;
18249;SDS011;27980;52.126;5.572;2022-09-23T09:22:32;12.77;;;8.75;;
18249;SDS011;27980;52.126;5.572;2022-09-23T09:25:10;9.95;;;7.95;;
18249;SDS011;27980;52.126;5.572;2022-09-23T09:27:48;8.90;;;8.00;;
18249;SDS011;27980;52.126;5.572;2022-09-23T09:30:17;10.38;;;8.75;;
18249;SDS011;27980;52.126;5.572;2022-09-23T09:32:46;11.82;;;9.50;;
18249;SDS011;27980;52.126;5.572;2022-09-23T09:35:18;12.15;;;8.88;;
18249;SDS011;27980;52.126;5.572;2022-09-23T09:37:52;13.05;;;9.73;;
18249;SDS011;27980;52.126;5.572;2022-09-23T09:40:18;11.63;;;9.52;;
18249;SDS011;27980;52.126;5.572;2022-09-23T09:42:46;10.20;;;9.05;;
18249;SDS011;27980;52.126;5.572;2022-09-23T09:45:16;11.30;;;9.02;;
18249;SDS011;27980;52.126;5.572;2022-09-23T09:47:53;10.25;;;8.50;;
18249;SDS011;27980;52.126;5.572;2022-09-23T09:50:40;10.55;;;8.38;;
18249;SDS011;27980;52.126;5.572;2022-09-23T09:56:00;10.35;;;9.00;;
18249;SDS011;27980;52.126;5.572;2022-09-23T09:58:31;12.57;;;9.05;;
18249;SDS011;27980;52.126;5.572;2022-09-23T10:01:17;12.05;;;8.80;;
18249;SDS011;27980;52.126;5.572;2022-09-23T10:03:45;11.75;;;8.38;;
18249;SDS011;27980;52.126;5.572;2022-09-23T10:06:15;11.82;;;8.30;;
18249;SDS011;27980;52.126;5.572;2022-09-23T10:11:41;9.93;;;8.40;;
18249;SDS011;27980;52.126;5.572;2022-09-23T10:14:26;10.07;;;8.48;;
18249;SDS011;27980;52.126;5.572;2022-09-23T10:17:01;9.52;;;7.93;;
18249;SDS011;27980;52.126;5.572;2022-09-23T10:19:30;11.68;;;7.60;;
18249;SDS011;27980;52.126;5.572;2022-09-23T10:22:00;8.82;;;7.80;;
18249;SDS011;27980;52.126;5.572;2022-09-23T10:24:30;8.82;;;7.93;;
18249;SDS011;27980;52.126;5.572;2022-09-23T10:27:00;12.27;;;7.63;;
18249;SDS011;27980;52.126;5.572;2022-09-23T10:29:32;8.52;;;7.68;;
18249;SDS011;27980;52.126;5.572;2022-09-23T10:32:15;10.35;;;7.22;;
18249;SDS011;27980;52.126;5.572;2022-09-23T10:34:46;10.15;;;7.32;;
18249;SDS011;27980;52.126;5.572;2022-09-23T10:37:17;7.82;;;6.93;;
18249;SDS011;27980;52.126;5.572;2022-09-23T10:39:50;9.85;;;6.90;;
18249;SDS011;27980;52.126;5.572;2022-09-23T10:42:49;9.05;;;6.20;;
18249;SDS011;27980;52.126;5.572;2022-09-23T10:45:41;8.60;;;6.25;;
18249;SDS011;27980;52.126;5.572;2022-09-23T10:48:34;6.97;;;6.28;;
18249;SDS011;27980;52.126;5.572;2022-09-23T10:51:11;8.75;;;5.65;;
18249;SDS011;27980;52.126;5.572;2022-09-23T10:53:45;6.43;;;5.82;;
18249;SDS011;27980;52.126;5.572;2022-09-23T10:56:23;7.53;;;5.75;;
18249;SDS011;27980;52.126;5.572;2022-09-23T10:59:01;7.18;;;6.00;;
18249;SDS011;27980;52.126;5.572;2022-09-23T11:01:37;8.43;;;6.20;;
18249;SDS011;27980;52.126;5.572;2022-09-23T11:07:24;6.13;;;5.53;;
18249;SDS011;27980;52.126;5.572;2022-09-23T11:10:07;7.70;;;5.63;;
18249;SDS011;27980;52.126;5.572;2022-09-23T11:12:54;7.90;;;5.10;;
18249;SDS011;27980;52.126;5.572;2022-09-23T11:15:28;7.35;;;5.78;;
18249;SDS011;27980;52.126;5.572;2022-09-23T11:18:09;7.00;;;5.60;;
18249;SDS011;27980;52.126;5.572;2022-09-23T11:20:52;7.95;;;5.80;;
18249;SDS011;27980;52.126;5.572;2022-09-23T11:23:35;7.13;;;5.85;;
18249;SDS011;27980;52.126;5.572;2022-09-23T11:26:21;6.45;;;5.80;;
18249;SDS011;27980;52.126;5.572;2022-09-23T11:29:02;10.00;;;6.03;;
18249;SDS011;27980;52.126;5.572;2022-09-23T11:31:43;7.22;;;5.80;;
18249;SDS011;27980;52.126;5.572;2022-09-23T11:34:27;8.45;;;6.38;;
18249;SDS011;27980;52.126;5.572;2022-09-23T11:37:07;7.57;;;6.80;;
18249;SDS011;27980;52.126;5.572;2022-09-23T11:39:39;8.85;;;6.07;;
18249;SDS011;27980;52.126;5.572;2022-09-23T11:42:12;7.35;;;6.35;;
18249;SDS011;27980;52.126;5.572;2022-09-23T11:44:48;6.95;;;6.13;;
18249;SDS011;27980;52.126;5.572;2022-09-23T11:47:23;8.48;;;6.47;;
18249;SDS011;27980;52.126;5.572;2022-09-23T11:49:55;10.27;;;6.97;;
18249;SDS011;27980;52.126;5.572;2022-09-23T11:52:30;6.97;;;6.28;;
18249;SDS011;27980;52.126;5.572;2022-09-23T11:55:02;7.78;;;6.57;;
18249;SDS011;27980;52.126;5.572;2022-09-23T11:57:33;7.55;;;6.75;;
18249;SDS011;27980;52.126;5.572;2022-09-23T12:00:11;8.90;;;6.72;;
18249;SDS011;27980;52.126;5.572;2022-09-23T12:02:47;9.55;;;6.80;;
18249;SDS011;27980;52.126;5.572;2022-09-23T12:05:26;7.22;;;6.40;;
18249;SDS011;27980;52.126;5.572;2022-09-23T12:08:00;7.53;;;6.25;;
18249;SDS011;27980;52.126;5.572;2022-09-23T12:10:39;8.90;;;6.57;;
18249;SDS011;27980;52.126;5.572;2022-09-23T12:13:11;10.35;;;6.30;;
18249;SDS011;27980;52.126;5.572;2022-09-23T12:15:52;8.75;;;6.13;;
18249;SDS011;27980;52.126;5.572;2022-09-23T12:18:42;6.50;;;5.85;;
18249;SDS011;27980;52.126;5.572;2022-09-23T12:21:25;5.90;;;5.30;;
18249;SDS011;27980;52.126;5.572;2022-09-23T12:24:11;8.77;;;6.18;;
18249;SDS011;27980;52.126;5.572;2022-09-23T12:26:47;7.63;;;5.65;;
18249;SDS011;27980;52.126;5.572;2022-09-23T12:29:17;10.63;;;5.80;;
18249;SDS011;27980;52.126;5.572;2022-09-23T12:34:19;7.53;;;6.32;;
18249;SDS011;27980;52.126;5.572;2022-09-23T12:36:50;8.20;;;5.65;;
18249;SDS011;27980;52.126;5.572;2022-09-23T12:39:21;6.40;;;5.80;;
18249;SDS011;27980;52.126;5.572;2022-09-23T12:41:55;9.93;;;5.90;;
18249;SDS011;27980;52.126;5.572;2022-09-23T12:44:34;6.90;;;5.50;;
18249;SDS011;27980;52.126;5.572;2022-09-23T12:56:21;7.90;;;6.28;;
18249;SDS011;27980;52.126;5.572;2022-09-23T12:58:57;8.75;;;5.80;;
18249;SDS011;27980;52.126;5.572;2022-09-23T13:01:36;8.95;;;5.32;;
18249;SDS011;27980;52.126;5.572;2022-09-23T13:04:03;8.80;;;6.13;;
18249;SDS011;27980;52.126;5.572;2022-09-23T13:06:52;6.78;;;5.38;;
18249;SDS011;27980;52.126;5.572;2022-09-23T13:09:23;6.15;;;4.60;;
18249;SDS011;27980;52.126;5.572;2022-09-23T13:11:53;4.95;;;3.90;;
18249;SDS011;27980;52.126;5.572;2022-09-23T13:14:24;7.07;;;4.15;;
18249;SDS011;27980;52.126;5.572;2022-09-23T13:16:52;5.38;;;4.20;;
18249;SDS011;27980;52.126;5.572;2022-09-23T13:22:10;5.78;;;4.50;;
18249;SDS011;27980;52.126;5.572;2022-09-23T13:24:41;6.18;;;4.72;;
18249;SDS011;27980;52.126;5.572;2022-09-23T13:27:16;5.60;;;4.47;;
18249;SDS011;27980;52.126;5.572;2022-09-23T13:29:52;5.97;;;4.68;;
18249;SDS011;27980;52.126;5.572;2022-09-23T13:32:24;6.45;;;4.38;;
18249;SDS011;27980;52.126;5.572;2022-09-23T13:34:56;5.88;;;4.32;;
18249;SDS011;27980;52.126;5.572;2022-09-23T13:37:40;6.95;;;5.03;;
18249;SDS011;27980;52.126;5.572;2022-09-23T13:40:15;5.63;;;4.80;;
18249;SDS011;27980;52.126;5.572;2022-09-23T13:42:47;5.97;;;4.60;;
18249;SDS011;27980;52.126;5.572;2022-09-23T13:45:17;5.18;;;4.68;;
18249;SDS011;27980;52.126;5.572;2022-09-23T13:47:47;7.15;;;5.20;;
18249;SDS011;27980;52.126;5.572;2022-09-23T13:50:16;12.23;;;8.02;;
18249;SDS011;27980;52.126;5.572;2022-09-23T13:52:45;8.70;;;4.72;;
18249;SDS011;27980;52.126;5.572;2022-09-23T13:55:25;5.97;;;4.63;;
18249;SDS011;27980;52.126;5.572;2022-09-23T13:57:59;8.68;;;4.93;;
18249;SDS011;27980;52.126;5.572;2022-09-23T14:00:31;6.85;;;4.60;;
18249;SDS011;27980;52.126;5.572;2022-09-23T14:03:01;5.95;;;4.50;;
18249;SDS011;27980;52.126;5.572;2022-09-23T14:05:31;7.03;;;4.28;;
18249;SDS011;27980;52.126;5.572;2022-09-23T14:08:00;8.80;;;4.93;;
18249;SDS011;27980;52.126;5.572;2022-09-23T14:10:28;7.03;;;4.70;;
18249;SDS011;27980;52.126;5.572;2022-09-23T14:12:55;5.65;;;4.40;;
18249;SDS011;27980;52.126;5.572;2022-09-23T14:15:24;4.25;;;3.78;;
18249;SDS011;27980;52.126;5.572;2022-09-23T14:17:52;5.35;;;4.05;;
18249;SDS011;27980;52.126;5.572;2022-09-23T14:20:26;4.60;;;3.53;;
18249;SDS011;27980;52.126;5.572;2022-09-23T14:23:03;4.68;;;3.83;;
18249;SDS011;27980;52.126;5.572;2022-09-23T14:25:30;6.00;;;3.70;;
18249;SDS011;27980;52.126;5.572;2022-09-23T14:27:58;3.80;;;3.35;;
18249;SDS011;27980;52.126;5.572;2022-09-23T14:30:27;4.68;;;3.45;;
18249;SDS011;27980;52.126;5.572;2022-09-23T14:32:54;7.53;;;4.50;;
18249;SDS011;27980;52.126;5.572;2022-09-23T14:35:22;6.68;;;4.38;;
18249;SDS011;27980;52.126;5.572;2022-09-23T14:37:51;4.93;;;3.88;;
18249;SDS011;27980;52.126;5.572;2022-09-23T14:40:48;5.35;;;3.75;;
18249;SDS011;27980;52.126;5.572;2022-09-23T14:43:17;4.95;;;3.53;;
18249;SDS011;27980;52.126;5.572;2022-09-23T14:45:50;4.88;;;3.90;;
18249;SDS011;27980;52.126;5.572;2022-09-23T14:48:21;4.30;;;3.78;;
18249;SDS011;27980;52.126;5.572;2022-09-23T14:50:50;8.50;;;5.55;;
18249;SDS011;27980;52.126;5.572;2022-09-23T14:53:37;5.88;;;4.30;;
18249;SDS011;27980;52.126;5.572;2022-09-23T14:59:18;6.35;;;4.97;;
18249;SDS011;27980;52.126;5.572;2022-09-23T15:01:52;6.25;;;4.88;;
18249;SDS011;27980;52.126;5.572;2022-09-23T15:04:26;6.82;;;5.65;;
18249;SDS011;27980;52.126;5.572;2022-09-23T15:06:57;6.68;;;5.22;;
18249;SDS011;27980;52.126;5.572;2022-09-23T15:09:29;7.53;;;5.80;;
18249;SDS011;27980;52.126;5.572;2022-09-23T15:11:58;8.45;;;6.10;;
18249;SDS011;27980;52.126;5.572;2022-09-23T15:14:28;6.03;;;5.43;;
18249;SDS011;27980;52.126;5.572;2022-09-23T15:17:01;8.02;;;5.68;;
18249;SDS011;27980;52.126;5.572;2022-09-23T15:19:30;8.50;;;6.45;;
18249;SDS011;27980;52.126;5.572;2022-09-23T15:21:59;8.23;;;5.80;;
18249;SDS011;27980;52.126;5.572;2022-09-23T15:24:33;7.55;;;6.20;;
18249;SDS011;27980;52.126;5.572;2022-09-23T15:27:15;9.80;;;6.30;;
18249;SDS011;27980;52.126;5.572;2022-09-23T15:29:50;9.98;;;6.30;;
18249;SDS011;27980;52.126;5.572;2022-09-23T15:32:19;8.82;;;6.80;;
18249;SDS011;27980;52.126;5.572;2022-09-23T15:34:47;7.18;;;6.43;;
18249;SDS011;27980;52.126;5.572;2022-09-23T15:37:15;8.25;;;6.50;;
18249;SDS011;27980;52.126;5.572;2022-09-23T15:39:42;11.10;;;7.30;;